Map

Track Data

SID SEASON NUMBER BASIN SUBBASIN NAME ISO_TIME NATURE LAT LON WMO_WIND WMO_PRES WMO_AGENCY TRACK_TYPE DIST2LAND LANDFALL IFLAG USA_AGENCY USA_ATCF_ID USA_LAT USA_LON USA_RECORD USA_STATUS USA_WIND USA_PRES USA_SSHS USA_R34_NE USA_R34_SE USA_R34_SW USA_R34_NW USA_R50_NE USA_R50_SE USA_R50_SW USA_R50_NW USA_R64_NE USA_R64_SE USA_R64_SW USA_R64_NW USA_POCI USA_ROCI USA_RMW USA_EYE TOKYO_LAT TOKYO_LON TOKYO_GRADE TOKYO_WIND TOKYO_PRES TOKYO_R50_DIR TOKYO_R50_LONG TOKYO_R50_SHORT TOKYO_R30_DIR TOKYO_R30_LONG TOKYO_R30_SHORT TOKYO_LAND CMA_LAT CMA_LON CMA_CAT CMA_WIND CMA_PRES HKO_LAT HKO_LON HKO_CAT HKO_WIND HKO_PRES NEWDELHI_LAT NEWDELHI_LON NEWDELHI_GRADE NEWDELHI_WIND NEWDELHI_PRES NEWDELHI_CI NEWDELHI_DP NEWDELHI_POCI REUNION_LAT REUNION_LON REUNION_TYPE REUNION_WIND REUNION_PRES REUNION_TNUM REUNION_CI REUNION_RMW REUNION_R34_NE REUNION_R34_SE REUNION_R34_SW REUNION_R34_NW REUNION_R50_NE REUNION_R50_SE REUNION_R50_SW REUNION_R50_NW REUNION_R64_NE REUNION_R64_SE REUNION_R64_SW REUNION_R64_NW BOM_LAT BOM_LON BOM_TYPE BOM_WIND BOM_PRES BOM_TNUM BOM_CI BOM_RMW BOM_R34_NE BOM_R34_SE BOM_R34_SW BOM_R34_NW BOM_R50_NE BOM_R50_SE BOM_R50_SW BOM_R50_NW BOM_R64_NE BOM_R64_SE BOM_R64_SW BOM_R64_NW BOM_ROCI BOM_POCI BOM_EYE BOM_POS_METHOD BOM_PRES_METHOD NADI_LAT NADI_LON NADI_CAT NADI_WIND NADI_PRES WELLINGTON_LAT WELLINGTON_LON WELLINGTON_WIND WELLINGTON_PRES DS824_LAT DS824_LON DS824_STAGE DS824_WIND DS824_PRES TD9636_LAT TD9636_LON TD9636_STAGE TD9636_WIND TD9636_PRES TD9635_LAT TD9635_LON TD9635_WIND TD9635_PRES TD9635_ROCI NEUMANN_LAT NEUMANN_LON NEUMANN_CLASS NEUMANN_WIND NEUMANN_PRES MLC_LAT MLC_LON MLC_CLASS MLC_WIND MLC_PRES USA_GUST BOM_GUST BOM_GUST_PER REUNION_GUST REUNION_GUST_PER USA_SEAHGT USA_SEARAD_NE USA_SEARAD_SE USA_SEARAD_SW USA_SEARAD_NW STORM_SPEED STORM_DIR
1859060S08057 1859 5 SI MM NOT_NAMED 1859-03-01 06:00:00 NR -8.20000 56.6000 reunion main 906 895 _____O________ -1 -8.20000 56.6000 99 9.90000 4 190
1859060S08057 1859 5 SI MM NOT_NAMED 1859-03-01 09:00:00 NR -8.38692 56.5627 main 895 873 _____P________ -1 -8.38692 56.5627 99 4 192
1859060S08057 1859 5 SI MM NOT_NAMED 1859-03-01 12:00:00 NR -8.58337 56.5242 main 873 860 _____P________ -1 -8.58337 56.5242 99 4 190
1859060S08057 1859 5 SI MM NOT_NAMED 1859-03-01 15:00:00 NR -8.79893 56.4833 main 860 839 _____P________ -1 -8.79893 56.4833 99 5 191
1859060S08057 1859 5 SI MM NOT_NAMED 1859-03-01 18:00:00 NR -9.04321 56.4388 main 839 821 _____P________ -1 -9.04321 56.4388 99 5 189
1859060S08057 1859 5 SI MM NOT_NAMED 1859-03-01 21:00:00 NR -9.32581 56.3894 main 821 795 _____P________ -1 -9.32581 56.3894 99 6 190
1859060S08057 1859 5 SI MM NOT_NAMED 1859-03-02 00:00:00 NR -9.65636 56.3340 main 789 774 _____P________ -1 -9.65636 56.3340 99 7 189
1859060S08057 1859 5 SI MM NOT_NAMED 1859-03-02 03:00:00 NR -10.0445 56.2713 main 774 741 _____P________ -1 -10.0445 56.2713 99 9 189
1859060S08057 1859 5 SI MM NOT_NAMED 1859-03-02 06:00:00 NR -10.5000 56.2000 reunion main 741 710 _____O________ -1 -10.5000 56.2000 99 9.90000 10 189
1859060S08057 1859 5 SI MM NOT_NAMED 1859-03-02 09:00:00 NR -11.0279 56.1194 main 710 681 _____P________ -1 -11.0279 56.1194 99 11 188
1859060S08057 1859 5 SI MM NOT_NAMED 1859-03-02 12:00:00 NR -11.6153 56.0315 main 681 653 _____P________ -1 -11.6153 56.0315 99 12 188
1859060S08057 1859 5 SI MM NOT_NAMED 1859-03-02 15:00:00 NR -12.2445 55.9389 main 653 625 _____P________ -1 -12.2445 55.9389 99 13 188
1859060S08057 1859 5 SI MM NOT_NAMED 1859-03-02 18:00:00 NR -12.8979 55.8443 main 625 602 _____P________ -1 -12.8979 55.8443 99 13 188
1859060S08057 1859 5 SI MM NOT_NAMED 1859-03-02 21:00:00 NR -13.5578 55.7503 main 598 570 _____P________ -1 -13.5578 55.7503 99 13 188
1859060S08057 1859 5 SI MM NOT_NAMED 1859-03-03 00:00:00 NR -14.2065 55.6597 main 570 549 _____P________ -1 -14.2065 55.6597 99 13 188
1859060S08057 1859 5 SI MM NOT_NAMED 1859-03-03 03:00:00 NR -14.8264 55.5753 main 549 536 _____P________ -1 -14.8264 55.5753 99 12 187
1859060S08057 1859 5 SI MM NOT_NAMED 1859-03-03 06:00:00 NR -15.4000 55.5000 reunion main 536 525 _____O________ -1 -15.4000 55.5000 99 9.90000 10 187
1859060S08057 1859 5 SI MM NOT_NAMED 1859-03-03 09:00:00 NR -15.8553 55.4377 main 519 489 _____P________ -1 -15.8553 55.4377 99 9 187
1859060S08057 1859 5 SI MM NOT_NAMED 1859-03-03 12:00:00 NR -16.2697 55.3834 main 479 455 _____P________ -1 -16.2697 55.3834 99 8 187
1859060S08057 1859 5 SI MM NOT_NAMED 1859-03-03 15:00:00 NR -16.6522 55.3365 main 445 417 _____P________ -1 -16.6522 55.3365 99 8 186
1859060S08057 1859 5 SI MM NOT_NAMED 1859-03-03 18:00:00 NR -17.0118 55.2968 main 417 389 _____P________ -1 -17.0118 55.2968 99 7 186
1859060S08057 1859 5 SI MM NOT_NAMED 1859-03-03 21:00:00 NR -17.3574 55.2637 main 380 361 _____P________ -1 -17.3574 55.2637 99 7 185
1859060S08057 1859 5 SI MM NOT_NAMED 1859-03-04 00:00:00 NR -17.6980 55.2368 main 361 335 _____P________ -1 -17.6980 55.2368 99 7 183
1859060S08057 1859 5 SI MM NOT_NAMED 1859-03-04 03:00:00 NR -18.0425 55.2157 main 335 291 _____P________ -1 -18.0425 55.2157 99 7 183
1859060S08057 1859 5 SI MM NOT_NAMED 1859-03-04 06:00:00 NR -18.4000 55.2000 reunion main 291 246 _____O________ -1 -18.4000 55.2000 99 9.90000 8 185
1859060S08057 1859 5 SI MM NOT_NAMED 1859-03-04 09:00:00 NR -18.7930 55.1603 main 246 202 _____P________ -1 -18.7930 55.1603 99 8 185
1859060S08057 1859 5 SI MM NOT_NAMED 1859-03-04 12:00:00 NR -19.1928 55.1238 main 202 157 _____P________ -1 -19.1928 55.1238 99 8 184
1859060S08057 1859 5 SI MM NOT_NAMED 1859-03-04 15:00:00 NR -19.6005 55.0945 main 157 113 _____P________ -1 -19.6005 55.0945 99 8 182
1859060S08057 1859 5 SI MM NOT_NAMED 1859-03-04 18:00:00 NR -20.0174 55.0764 main 113 70 _____P________ -1 -20.0174 55.0764 99 8 0
1859060S08057 1859 5 SI MM NOT_NAMED 1859-03-04 21:00:00 NR -20.4446 55.0737 main 70 23 _____P________ -1 -20.4446 55.0737 99 9 180
1859060S08057 1859 5 SI MM NOT_NAMED 1859-03-05 00:00:00 NR -20.8833 55.0905 main 23 10 _____P________ -1 -20.8833 55.0905 99 9 177
1859060S08057 1859 5 SI MM NOT_NAMED 1859-03-05 03:00:00 NR -21.3347 55.1312 main 20 20 _____P________ -1 -21.3347 55.1312 99 9 173
1859060S08057 1859 5 SI MM NOT_NAMED 1859-03-05 06:00:00 NR -21.8000 55.2000 reunion main 56 56 _____O________ -1 -21.8000 55.2000 99 9.90000 9 171
1859060S08057 1859 5 SI MM NOT_NAMED 1859-03-05 09:00:00 NR -22.2605 55.2774 main 105 105 _____P________ -1 -22.2605 55.2774 99 10 170
1859060S08057 1859 5 SI MM NOT_NAMED 1859-03-05 12:00:00 NR -22.7335 55.3806 main 146 146 _____P________ -1 -22.7335 55.3806 99 10 167
1859060S08057 1859 5 SI MM NOT_NAMED 1859-03-05 15:00:00 NR -23.2200 55.5104 main 201 201 _____P________ -1 -23.2200 55.5104 99 10 165
1859060S08057 1859 5 SI MM NOT_NAMED 1859-03-05 18:00:00 NR -23.7213 55.6681 main 257 257 _____P________ -1 -23.7213 55.6681 99 11 163
1859060S08057 1859 5 SI MM NOT_NAMED 1859-03-05 21:00:00 NR -24.2387 55.8546 main 314 314 _____P________ -1 -24.2387 55.8546 99 11 161
1859060S08057 1859 5 SI MM NOT_NAMED 1859-03-06 00:00:00 NR -24.7735 56.0712 main 383 383 _____P________ -1 -24.7735 56.0712 99 12 159
1859060S08057 1859 5 SI MM NOT_NAMED 1859-03-06 03:00:00 NR -25.3268 56.3192 main 441 441 _____P________ -1 -25.3268 56.3192 99 12 157
1859060S08057 1859 5 SI MM NOT_NAMED 1859-03-06 06:00:00 NR -25.9000 56.6000 reunion main 513 513 _____O________ -1 -25.9000 56.6000 99 9.90000 14 155
1859060S08057 1859 5 SI MM NOT_NAMED 1859-03-06 09:00:00 NR -26.5770 56.9584 main 598 598 _____P________ -1 -26.5770 56.9584 99 16 154
1859060S08057 1859 5 SI MM NOT_NAMED 1859-03-06 12:00:00 NR -27.2856 57.3619 main 683 683 _____P________ -1 -27.2856 57.3619 99 16 152
1859060S08057 1859 5 SI MM NOT_NAMED 1859-03-06 15:00:00 NR -28.0043 57.7949 main 770 770 _____P________ -1 -28.0043 57.7949 99 16 151
1859060S08057 1859 5 SI MM NOT_NAMED 1859-03-06 18:00:00 NR -28.7113 58.2410 main 856 856 _____P________ -1 -28.7113 58.2410 99 16 151
1859060S08057 1859 5 SI MM NOT_NAMED 1859-03-06 21:00:00 NR -29.3855 58.6830 main 946 946 _____P________ -1 -29.3855 58.6830 99 15 150
1859060S08057 1859 5 SI MM NOT_NAMED 1859-03-07 00:00:00 NR -30.0055 59.1028 main 1022 1022 _____P________ -1 -30.0055 59.1028 99 14 149
1859060S08057 1859 5 SI MM NOT_NAMED 1859-03-07 03:00:00 NR -30.5506 59.4816 main 1098 1098 _____P________ -1 -30.5506 59.4816 99 12 149
1859060S08057 1859 5 SI MM NOT_NAMED 1859-03-07 06:00:00 NR -31.0000 59.8000 reunion main 1150 1150 _____O________ -1 -31.0000 59.8000 99 9.90000 9 149
1859060S08057 1859 5 SI MM NOT_NAMED 1859-03-07 09:00:00 NR -31.3393 60.0430 main 1189 1189 _____P________ -1 -31.3393 60.0430 99 7 149
1859060S08057 1859 5 SI MM NOT_NAMED 1859-03-07 12:00:00 NR -31.5775 60.2146 main 1227 1227 _____P________ -1 -31.5775 60.2146 99 5 148
1859060S08057 1859 5 SI MM NOT_NAMED 1859-03-07 15:00:00 NR -31.7294 60.3244 main 1241 1241 _____P________ -1 -31.7294 60.3244 99 3 149
1859060S08057 1859 5 SI MM NOT_NAMED 1859-03-07 18:00:00 NR -31.8096 60.3822 main 1255 1255 _____P________ -1 -31.8096 60.3822 99 1 145
1859060S08057 1859 5 SI MM NOT_NAMED 1859-03-07 21:00:00 NR -31.8324 60.3982 main 1255 1255 _____P________ -1 -31.8324 60.3982 99 0 0
1859060S08057 1859 5 SI MM NOT_NAMED 1859-03-08 00:00:00 NR -31.8122 60.3829 main 1255 1251 _____P________ -1 -31.8122 60.3829 99 1 331
1859060S08057 1859 5 SI MM NOT_NAMED 1859-03-08 03:00:00 NR -31.7633 60.3466 main 1251 1241 _____P________ -1 -31.7633 60.3466 99 1 329
1859060S08057 1859 5 SI MM NOT_NAMED 1859-03-08 06:00:00 NR -31.7000 60.3000 reunion main 1241 _____O________ -1 -31.7000 60.3000 99 9.90000 1 323

About IBTrACS Database

This database is a web-friendly format of International Best Track Archive for Climate Stewardship (IBTrACS), a global best track data archive curated by NOAA dating back to 1842.

Updated: 2021-10-21